Terminal Aerodrome Forecast
Issued by NWS

Home | Current Version | Previous Version | Text Only | Print | Product List | Glossary On
Versions: 1 2 3 4 5 6 7 8 9 10 11 12 13 14 15
655
FTUS42 KTBW 201720
TAFPGD
TAF
KPGD 201720Z 2018/2118 26006KT P6SM VCTS SCT040CB BKN100
      TEMPO 2018/2021 VRB15G25KT 3SM +TSRA BKN025CB
     FM202100 25008KT P6SM SHRA VCTS BKN045CB OVC100
     FM210200 VRB03KT P6SM FEW100 SCT250
     FM211400 VRB04KT P6SM VCTS SCT030CB SCT250=

USA.gov is the U.S. government's official web portal to all federal, state and local government web resources and services.